createdAt,value
2023-05-10T00:03:10.901Z,13.41
2023-05-10T00:08:15.427Z,13.21
2023-05-10T00:13:18.469Z,13.18
2023-05-10T00:18:21.535Z,13.10
2023-05-10T00:23:25.888Z,13.04
2023-05-10T00:28:29.409Z,12.93
2023-05-10T00:33:32.510Z,12.91
2023-05-10T00:38:36.924Z,12.80
2023-05-10T00:43:39.956Z,12.84
2023-05-10T00:48:43.107Z,12.84
2023-05-10T00:53:48.041Z,12.77
2023-05-10T00:58:51.223Z,12.77
2023-05-10T01:03:54.500Z,12.69
2023-05-10T01:08:58.880Z,12.63
2023-05-10T01:14:02.290Z,12.64
2023-05-10T01:19:06.934Z,12.58
2023-05-10T01:24:41.608Z,12.49
2023-05-10T01:30:21.900Z,12.41
2023-05-10T01:35:38.476Z,12.36
2023-05-10T01:40:49.067Z,12.32
2023-05-10T01:46:01.711Z,12.33
2023-05-10T01:51:07.806Z,12.31
2023-05-10T01:56:12.954Z,12.28
2023-05-10T02:01:17.323Z,12.26
2023-05-10T02:06:23.365Z,12.32
2023-05-10T02:11:27.598Z,12.33
2023-05-10T02:16:32.855Z,12.26
2023-05-10T02:21:39.064Z,12.21
2023-05-10T02:26:44.132Z,12.14
2023-05-10T02:31:48.325Z,12.15
2023-05-10T02:36:54.197Z,12.13
2023-05-10T02:41:59.280Z,12.11
2023-05-10T02:47:02.365Z,12.09
2023-05-10T02:52:10.226Z,12.09
2023-05-10T02:57:19.062Z,12.08
2023-05-10T03:02:23.144Z,12.03
2023-05-10T03:07:27.986Z,12.07
2023-05-10T03:12:43.299Z,12.05
2023-05-10T03:17:58.969Z,12.08
2023-05-10T03:23:09.460Z,12.08
2023-05-10T03:28:14.115Z,12.15
2023-05-10T03:33:17.387Z,12.09
2023-05-10T03:38:21.743Z,12.12
2023-05-10T03:43:24.898Z,12.10
2023-05-10T03:48:27.900Z,12.11
2023-05-10T03:53:32.245Z,12.21
2023-05-10T03:58:35.363Z,12.16
2023-05-10T04:03:39.154Z,12.14
2023-05-10T04:08:43.573Z,12.09
2023-05-10T04:13:46.560Z,12.06
2023-05-10T04:18:50.299Z,12.08
2023-05-10T04:23:54.717Z,12.15
2023-05-10T04:28:57.740Z,12.12
2023-05-10T04:34:00.853Z,12.11
2023-05-10T04:39:06.197Z,12.20
2023-05-10T04:44:09.242Z,12.13
2023-05-10T04:49:12.709Z,12.14
2023-05-10T04:54:17.103Z,12.13
2023-05-10T04:59:20.132Z,12.19
2023-05-10T05:04:24.352Z,12.30
2023-05-10T05:09:28.778Z,12.28
2023-05-10T05:14:31.806Z,12.38
2023-05-10T05:19:34.884Z,12.43
2023-05-10T05:24:39.514Z,12.38
2023-05-10T05:29:42.648Z,12.26
2023-05-10T05:34:46.776Z,12.30
2023-05-10T05:39:51.117Z,12.34
2023-05-10T05:44:54.127Z,12.27
2023-05-10T05:49:57.203Z,12.41
2023-05-10T05:55:01.536Z,12.57
2023-05-10T06:00:05.174Z,12.55
2023-05-10T06:05:09.147Z,12.62
2023-05-10T06:10:13.644Z,12.77
2023-05-10T06:15:17.716Z,12.68
2023-05-10T06:20:20.869Z,12.75
2023-05-10T06:25:25.618Z,12.84
2023-05-10T06:49:39.305Z,13.75
2023-05-10T06:54:47.690Z,13.90
2023-05-10T06:59:58.974Z,13.90
2023-05-10T07:05:05.571Z,13.91
2023-05-10T07:10:12.703Z,13.90
2023-05-10T07:15:24.916Z,13.89
2023-05-10T07:20:36.663Z,13.80
2023-05-10T07:26:15.741Z,13.81
2023-05-10T07:31:28.906Z,13.98
2023-05-10T07:40:48.488Z,14.12
2023-05-10T07:43:00.895Z,14.33
2023-05-10T07:48:04.202Z,14.45
2023-05-10T07:53:07.489Z,14.27
2023-05-10T07:58:11.825Z,14.26
2023-05-10T08:03:14.935Z,14.24
2023-05-10T08:08:18.440Z,14.31
2023-05-10T08:13:23.017Z,14.30
2023-05-10T08:18:26.322Z,14.17
2023-05-10T08:23:29.349Z,14.28
2023-05-10T08:28:33.725Z,14.45
2023-05-10T08:33:36.723Z,14.63
2023-05-10T08:38:39.802Z,14.93
2023-05-10T08:43:47.555Z,14.99
2023-05-10T08:48:52.559Z,14.79
2023-05-10T08:53:56.135Z,14.86
2023-05-10T08:59:00.683Z,14.77
2023-05-10T09:04:05.258Z,14.95
2023-05-10T09:09:08.486Z,14.92
2023-05-10T09:14:14.507Z,14.57
2023-05-10T09:19:17.654Z,14.13
2023-05-10T09:24:20.727Z,14.02
2023-05-10T09:29:25.126Z,14.16
2023-05-10T09:34:31.650Z,14.52
2023-05-10T09:39:35.545Z,14.78
2023-05-10T09:44:41.808Z,15.14
2023-05-10T09:49:45.173Z,15.43
2023-05-10T09:54:54.713Z,15.74
2023-05-10T10:00:02.352Z,15.96
2023-05-10T10:05:05.964Z,16.28
2023-05-10T10:10:12.492Z,16.29
2023-05-10T10:15:17.173Z,16.31
2023-05-10T10:20:21.923Z,16.10
2023-05-10T10:25:25.284Z,16.53
2023-05-10T10:30:37.302Z,17.22
2023-05-10T10:35:41.580Z,17.59
2023-05-10T10:40:44.737Z,17.45
2023-05-10T10:46:11.671Z,17.62
2023-05-10T10:51:15.313Z,17.72
2023-05-10T10:56:25.133Z,17.71
2023-05-10T11:01:34.920Z,17.94
2023-05-10T11:06:38.042Z,18.04
2023-05-10T11:11:52.867Z,18.26
2023-05-10T11:16:57.470Z,18.37
2023-05-10T11:22:16.070Z,18.36
2023-05-10T11:27:19.235Z,17.62
2023-05-10T11:32:24.289Z,17.20
2023-05-10T11:37:33.368Z,16.50
2023-05-10T11:42:36.363Z,15.95
2023-05-10T11:47:43.115Z,15.86
2023-05-10T11:52:46.129Z,15.96
2023-05-10T11:57:50.023Z,15.91
2023-05-10T12:02:54.893Z,16.05
2023-05-10T12:08:12.909Z,16.27
2023-05-10T12:13:17.007Z,16.28
2023-05-10T12:18:26.641Z,16.59
2023-05-10T12:23:29.760Z,16.54
2023-05-10T12:28:33.895Z,16.68
2023-05-10T12:33:43.282Z,16.66
2023-05-10T12:38:48.897Z,16.40
2023-05-10T12:43:53.423Z,16.15
2023-05-10T12:49:07.891Z,16.28
2023-05-10T12:54:12.836Z,16.70
2023-05-10T12:59:15.838Z,17.14
2023-05-10T13:04:20.337Z,17.18
2023-05-10T13:09:23.728Z,16.96
2023-05-10T13:14:27.204Z,16.88
2023-05-10T13:19:31.610Z,16.71
2023-05-10T13:24:34.706Z,16.42
2023-05-10T13:29:37.694Z,16.47
2023-05-10T13:34:42.006Z,16.52
2023-05-10T13:39:45.263Z,16.56
2023-05-10T13:44:48.267Z,16.59
2023-05-10T13:49:52.587Z,16.56
2023-05-10T13:54:56.881Z,16.46
2023-05-10T14:00:00.534Z,16.05
2023-05-10T14:05:05.606Z,15.71
2023-05-10T14:10:09.289Z,15.40
2023-05-10T14:15:12.905Z,15.23
2023-05-10T14:20:17.336Z,15.30
2023-05-10T14:25:20.911Z,15.33
2023-05-10T14:30:23.951Z,15.21
2023-05-10T14:35:28.904Z,14.97
2023-05-10T14:40:32.667Z,14.58
2023-05-10T14:45:35.753Z,14.22
2023-05-10T14:50:40.526Z,14.30
2023-05-10T14:55:43.807Z,14.51
2023-05-10T15:00:47.292Z,14.91
2023-05-10T15:05:52.748Z,15.36
2023-05-10T15:10:56.761Z,15.42
2023-05-10T15:16:00.277Z,15.93
2023-05-10T15:21:04.857Z,16.52
2023-05-10T15:26:08.701Z,16.44
2023-05-10T15:31:12.171Z,16.66
2023-05-10T15:36:18.570Z,16.64
2023-05-10T15:41:21.720Z,16.74
2023-05-10T15:46:24.861Z,16.61
2023-05-10T15:51:29.527Z,16.75
2023-05-10T15:56:32.587Z,16.94
2023-05-10T16:01:35.836Z,16.91
2023-05-10T16:06:41.315Z,16.93
2023-05-10T16:11:44.851Z,16.72
2023-05-10T16:16:48.852Z,16.67
2023-05-10T16:21:53.923Z,16.40
2023-05-10T16:26:57.112Z,16.23
2023-05-10T16:32:00.730Z,16.29
2023-05-10T16:37:05.102Z,16.38
2023-05-10T16:42:08.334Z,16.36
2023-05-10T16:47:11.344Z,16.34
2023-05-10T16:52:16.074Z,16.38
2023-05-10T16:57:19.523Z,16.35
2023-05-10T17:02:23.344Z,16.24
2023-05-10T17:07:29.269Z,15.94
2023-05-10T17:12:32.650Z,16.05
2023-05-10T17:17:36.151Z,15.93
2023-05-10T17:22:40.580Z,15.78
2023-05-10T17:27:44.134Z,15.70
2023-05-10T17:32:47.350Z,15.54
2023-05-10T17:37:51.744Z,15.42
2023-05-10T17:42:54.755Z,15.26
2023-05-10T17:47:58.044Z,15.14
2023-05-10T17:53:02.778Z,15.01
2023-05-10T17:58:05.954Z,15.06
2023-05-10T18:03:09.118Z,14.99
2023-05-10T18:08:13.536Z,14.88
2023-05-10T18:13:16.795Z,14.70
2023-05-10T18:18:19.902Z,14.45
2023-05-10T18:23:25.599Z,14.39
2023-05-10T18:28:29.049Z,14.31
2023-05-10T18:33:32.056Z,14.19
2023-05-10T18:38:37.093Z,14.07
2023-05-10T18:43:40.157Z,14.01
2023-05-10T18:48:43.490Z,13.90
2023-05-10T18:53:48.171Z,13.78
2023-05-10T18:58:51.811Z,13.69
2023-05-10T19:03:54.837Z,13.67
2023-05-10T19:08:59.169Z,13.63
2023-05-10T19:14:02.835Z,13.57
2023-05-10T19:19:07.207Z,13.49
2023-05-10T19:24:12.519Z,13.39
2023-05-10T19:29:15.823Z,13.31
2023-05-10T19:34:19.276Z,13.30
2023-05-10T19:39:23.778Z,13.21
2023-05-10T19:44:26.878Z,13.21
2023-05-10T19:49:29.917Z,13.18
2023-05-10T19:54:34.336Z,13.11
2023-05-10T19:59:37.789Z,13.04
2023-05-10T20:04:40.873Z,13.05
2023-05-10T20:09:45.307Z,12.97
2023-05-10T20:14:48.763Z,12.87
2023-05-10T20:19:52.260Z,12.78
2023-05-10T20:24:58.779Z,12.75
2023-05-10T20:30:01.861Z,12.71
2023-05-10T20:35:05.843Z,12.63
2023-05-10T20:40:11.241Z,12.62
2023-05-10T20:45:14.287Z,12.58
2023-05-10T20:50:17.762Z,12.45
2023-05-10T20:55:22.424Z,12.43
2023-05-10T21:00:25.962Z,12.34
2023-05-10T21:05:29.451Z,12.22
2023-05-10T21:10:34.155Z,12.11
2023-05-10T21:15:37.189Z,12.00
2023-05-10T21:20:40.633Z,11.94
2023-05-10T21:25:45.024Z,11.81
2023-05-10T21:30:48.186Z,11.63
2023-05-10T21:35:51.651Z,11.54
2023-05-10T21:40:56.439Z,11.42
2023-05-10T21:46:00.001Z,11.45
2023-05-10T21:51:03.502Z,11.45
2023-05-10T21:56:08.176Z,11.48
2023-05-10T22:01:11.549Z,11.34
2023-05-10T22:06:14.919Z,11.23
2023-05-10T22:11:19.270Z,11.17
2023-05-10T22:16:22.780Z,11.17
2023-05-10T22:21:26.362Z,11.12
2023-05-10T22:26:31.179Z,11.07
2023-05-10T22:31:34.563Z,10.95
2023-05-10T22:36:38.232Z,10.91
2023-05-10T22:41:42.862Z,10.81
2023-05-10T22:46:46.186Z,10.69
2023-05-10T22:51:49.632Z,10.69
2023-05-10T22:56:54.458Z,10.57
2023-05-10T23:01:57.908Z,10.40
2023-05-10T23:07:01.364Z,10.42
2023-05-10T23:12:06.199Z,10.39
2023-05-10T23:17:09.402Z,10.38
2023-05-10T23:22:12.421Z,10.34
2023-05-10T23:27:17.238Z,10.32
2023-05-10T23:32:20.388Z,10.33
2023-05-10T23:37:23.688Z,10.39
2023-05-10T23:42:28.070Z,10.50
2023-05-10T23:47:31.143Z,10.55
2023-05-10T23:52:34.426Z,10.61
2023-05-10T23:57:39.129Z,10.64
